sensor_id;sensor_type;location;lat;lon;timestamp;P1;durP1;ratioP1;P2;durP2;ratioP2
58097;SDS011;43913;55.940;37.504;2023-03-30T00:00:51;20.00;;;14.45;;
58097;SDS011;43913;55.940;37.504;2023-03-30T00:03:17;18.90;;;14.63;;
58097;SDS011;43913;55.940;37.504;2023-03-30T00:05:47;18.02;;;13.88;;
58097;SDS011;43913;55.940;37.504;2023-03-30T00:08:16;17.80;;;15.00;;
58097;SDS011;43913;55.940;37.504;2023-03-30T00:10:45;20.52;;;16.00;;
58097;SDS011;43913;55.940;37.504;2023-03-30T00:13:11;20.92;;;16.83;;
58097;SDS011;43913;55.940;37.504;2023-03-30T00:15:37;18.05;;;14.85;;
58097;SDS011;43913;55.940;37.504;2023-03-30T00:18:03;17.90;;;14.52;;
58097;SDS011;43913;55.940;37.504;2023-03-30T00:20:29;22.02;;;16.60;;
58097;SDS011;43913;55.940;37.504;2023-03-30T00:22:58;20.48;;;16.83;;
58097;SDS011;43913;55.940;37.504;2023-03-30T00:25:24;24.08;;;18.08;;
58097;SDS011;43913;55.940;37.504;2023-03-30T00:27:50;18.88;;;14.75;;
58097;SDS011;43913;55.940;37.504;2023-03-30T00:30:17;20.40;;;16.98;;
58097;SDS011;43913;55.940;37.504;2023-03-30T00:32:44;18.25;;;15.65;;
58097;SDS011;43913;55.940;37.504;2023-03-30T00:35:10;21.35;;;16.08;;
58097;SDS011;43913;55.940;37.504;2023-03-30T00:37:37;21.35;;;16.48;;
58097;SDS011;43913;55.940;37.504;2023-03-30T00:40:04;21.75;;;15.82;;
58097;SDS011;43913;55.940;37.504;2023-03-30T00:42:35;20.05;;;16.23;;
58097;SDS011;43913;55.940;37.504;2023-03-30T00:47:36;18.65;;;16.23;;
58097;SDS011;43913;55.940;37.504;2023-03-30T00:50:05;20.25;;;16.60;;
58097;SDS011;43913;55.940;37.504;2023-03-30T00:52:32;20.13;;;15.88;;
58097;SDS011;43913;55.940;37.504;2023-03-30T00:55:01;21.67;;;15.65;;
58097;SDS011;43913;55.940;37.504;2023-03-30T00:57:32;23.52;;;17.00;;
58097;SDS011;43913;55.940;37.504;2023-03-30T01:00:01;19.65;;;15.45;;
58097;SDS011;43913;55.940;37.504;2023-03-30T01:02:31;20.08;;;16.48;;
58097;SDS011;43913;55.940;37.504;2023-03-30T01:05:00;19.08;;;15.10;;
58097;SDS011;43913;55.940;37.504;2023-03-30T01:07:26;18.55;;;15.23;;
58097;SDS011;43913;55.940;37.504;2023-03-30T01:09:55;22.33;;;16.92;;
58097;SDS011;43913;55.940;37.504;2023-03-30T01:12:21;18.23;;;14.80;;
58097;SDS011;43913;55.940;37.504;2023-03-30T01:14:47;23.60;;;17.73;;
58097;SDS011;43913;55.940;37.504;2023-03-30T01:17:30;22.23;;;16.92;;
58097;SDS011;43913;55.940;37.504;2023-03-30T01:20:15;22.45;;;16.75;;
58097;SDS011;43913;55.940;37.504;2023-03-30T01:22:53;21.40;;;16.02;;
58097;SDS011;43913;55.940;37.504;2023-03-30T01:33:43;18.05;;;12.65;;
58097;SDS011;43913;55.940;37.504;2023-03-30T01:44:38;14.27;;;10.48;;
58097;SDS011;43913;55.940;37.504;2023-03-30T01:55:24;13.18;;;9.30;;
58097;SDS011;43913;55.940;37.504;2023-03-30T01:57:58;11.05;;;9.18;;
58097;SDS011;43913;55.940;37.504;2023-03-30T02:00:31;12.13;;;9.70;;
58097;SDS011;43913;55.940;37.504;2023-03-30T02:02:59;13.95;;;9.25;;
58097;SDS011;43913;55.940;37.504;2023-03-30T02:05:31;11.50;;;8.35;;
58097;SDS011;43913;55.940;37.504;2023-03-30T02:07:59;10.65;;;9.13;;
58097;SDS011;43913;55.940;37.504;2023-03-30T02:10:28;9.65;;;8.05;;
58097;SDS011;43913;55.940;37.504;2023-03-30T02:12:56;9.90;;;8.90;;
58097;SDS011;43913;55.940;37.504;2023-03-30T02:15:23;8.57;;;7.43;;
58097;SDS011;43913;55.940;37.504;2023-03-30T02:17:51;8.88;;;8.07;;
58097;SDS011;43913;55.940;37.504;2023-03-30T02:20:18;9.93;;;8.40;;
58097;SDS011;43913;55.940;37.504;2023-03-30T02:22:44;9.48;;;7.78;;
58097;SDS011;43913;55.940;37.504;2023-03-30T02:25:10;10.20;;;8.30;;
58097;SDS011;43913;55.940;37.504;2023-03-30T02:27:38;7.80;;;7.03;;
58097;SDS011;43913;55.940;37.504;2023-03-30T02:30:05;8.65;;;7.63;;
58097;SDS011;43913;55.940;37.504;2023-03-30T02:32:42;9.18;;;7.47;;
58097;SDS011;43913;55.940;37.504;2023-03-30T02:35:18;8.18;;;7.28;;
58097;SDS011;43913;55.940;37.504;2023-03-30T02:46:03;9.48;;;8.43;;
58097;SDS011;43913;55.940;37.504;2023-03-30T02:51:55;8.77;;;7.30;;
58097;SDS011;43913;55.940;37.504;2023-03-30T03:00:55;8.05;;;7.00;;
58097;SDS011;43913;55.940;37.504;2023-03-30T03:03:09;8.88;;;7.80;;
58097;SDS011;43913;55.940;37.504;2023-03-30T03:05:39;10.00;;;7.97;;
58097;SDS011;43913;55.940;37.504;2023-03-30T03:08:12;9.00;;;7.88;;
58097;SDS011;43913;55.940;37.504;2023-03-30T03:10:39;7.13;;;6.38;;
58097;SDS011;43913;55.940;37.504;2023-03-30T03:13:05;7.47;;;6.78;;
58097;SDS011;43913;55.940;37.504;2023-03-30T03:15:32;8.00;;;6.70;;
58097;SDS011;43913;55.940;37.504;2023-03-30T03:18:05;6.95;;;6.25;;
58097;SDS011;43913;55.940;37.504;2023-03-30T03:20:31;7.45;;;5.80;;
58097;SDS011;43913;55.940;37.504;2023-03-30T03:22:59;5.85;;;5.20;;
58097;SDS011;43913;55.940;37.504;2023-03-30T03:25:25;6.45;;;5.32;;
58097;SDS011;43913;55.940;37.504;2023-03-30T03:27:56;6.55;;;4.90;;
58097;SDS011;43913;55.940;37.504;2023-03-30T03:30:25;5.75;;;4.90;;
58097;SDS011;43913;55.940;37.504;2023-03-30T03:33:06;7.72;;;5.43;;
58097;SDS011;43913;55.940;37.504;2023-03-30T03:35:33;5.05;;;4.55;;
58097;SDS011;43913;55.940;37.504;2023-03-30T03:38:02;7.07;;;5.13;;
58097;SDS011;43913;55.940;37.504;2023-03-30T03:40:28;6.72;;;5.15;;
58097;SDS011;43913;55.940;37.504;2023-03-30T03:42:54;5.18;;;4.38;;
58097;SDS011;43913;55.940;37.504;2023-03-30T03:45:20;5.07;;;4.57;;
58097;SDS011;43913;55.940;37.504;2023-03-30T03:47:51;6.80;;;5.13;;
58097;SDS011;43913;55.940;37.504;2023-03-30T03:50:22;4.50;;;4.10;;
58097;SDS011;43913;55.940;37.504;2023-03-30T03:52:48;5.78;;;4.80;;
58097;SDS011;43913;55.940;37.504;2023-03-30T03:55:14;5.93;;;5.32;;
58097;SDS011;43913;55.940;37.504;2023-03-30T03:57:41;5.53;;;5.00;;
58097;SDS011;43913;55.940;37.504;2023-03-30T04:00:09;6.57;;;4.93;;
58097;SDS011;43913;55.940;37.504;2023-03-30T04:02:42;5.43;;;4.80;;
58097;SDS011;43913;55.940;37.504;2023-03-30T04:05:08;7.03;;;5.68;;
58097;SDS011;43913;55.940;37.504;2023-03-30T04:07:35;6.93;;;5.95;;
58097;SDS011;43913;55.940;37.504;2023-03-30T04:10:02;6.22;;;5.63;;
58097;SDS011;43913;55.940;37.504;2023-03-30T04:12:55;6.00;;;5.38;;
58097;SDS011;43913;55.940;37.504;2023-03-30T04:15:30;5.63;;;5.00;;
58097;SDS011;43913;55.940;37.504;2023-03-30T04:18:14;7.07;;;6.35;;
58097;SDS011;43913;55.940;37.504;2023-03-30T04:20:49;6.45;;;5.60;;
58097;SDS011;43913;55.940;37.504;2023-03-30T04:23:42;5.82;;;5.25;;
58097;SDS011;43913;55.940;37.504;2023-03-30T04:26:31;7.35;;;5.93;;
58097;SDS011;43913;55.940;37.504;2023-03-30T04:29:10;6.88;;;5.72;;
58097;SDS011;43913;55.940;37.504;2023-03-30T04:31:56;7.38;;;5.35;;
58097;SDS011;43913;55.940;37.504;2023-03-30T04:34:46;7.57;;;6.05;;
58097;SDS011;43913;55.940;37.504;2023-03-30T04:37:27;6.47;;;5.78;;
58097;SDS011;43913;55.940;37.504;2023-03-30T04:40:15;7.85;;;5.90;;
58097;SDS011;43913;55.940;37.504;2023-03-30T04:43:00;6.70;;;5.60;;
58097;SDS011;43913;55.940;37.504;2023-03-30T04:45:46;5.55;;;5.03;;
58097;SDS011;43913;55.940;37.504;2023-03-30T04:48:35;7.03;;;6.10;;
58097;SDS011;43913;55.940;37.504;2023-03-30T04:51:28;7.05;;;5.93;;
58097;SDS011;43913;55.940;37.504;2023-03-30T04:54:30;6.28;;;5.20;;
58097;SDS011;43913;55.940;37.504;2023-03-30T04:57:24;5.95;;;4.93;;
58097;SDS011;43913;55.940;37.504;2023-03-30T05:00:29;7.95;;;5.50;;
58097;SDS011;43913;55.940;37.504;2023-03-30T05:03:13;6.15;;;5.55;;
58097;SDS011;43913;55.940;37.504;2023-03-30T05:06:05;6.25;;;5.10;;
58097;SDS011;43913;55.940;37.504;2023-03-30T05:08:50;6.10;;;5.13;;
58097;SDS011;43913;55.940;37.504;2023-03-30T05:11:45;6.60;;;4.53;;
58097;SDS011;43913;55.940;37.504;2023-03-30T05:14:28;5.30;;;4.68;;
58097;SDS011;43913;55.940;37.504;2023-03-30T05:17:19;5.80;;;4.88;;
58097;SDS011;43913;55.940;37.504;2023-03-30T05:20:00;5.57;;;3.97;;
58097;SDS011;43913;55.940;37.504;2023-03-30T05:22:49;4.65;;;4.25;;
58097;SDS011;43913;55.940;37.504;2023-03-30T05:25:31;4.70;;;4.20;;
58097;SDS011;43913;55.940;37.504;2023-03-30T05:28:17;4.78;;;4.18;;
58097;SDS011;43913;55.940;37.504;2023-03-30T05:30:52;4.00;;;3.60;;
58097;SDS011;43913;55.940;37.504;2023-03-30T05:33:37;4.00;;;3.60;;
58097;SDS011;43913;55.940;37.504;2023-03-30T05:36:41;4.85;;;3.10;;
58097;SDS011;43913;55.940;37.504;2023-03-30T05:39:39;3.78;;;3.42;;
58097;SDS011;43913;55.940;37.504;2023-03-30T05:42:24;4.47;;;4.03;;
58097;SDS011;43913;55.940;37.504;2023-03-30T05:45:26;4.10;;;3.47;;
58097;SDS011;43913;55.940;37.504;2023-03-30T05:47:52;3.88;;;3.30;;
58097;SDS011;43913;55.940;37.504;2023-03-30T05:50:37;3.83;;;3.42;;
58097;SDS011;43913;55.940;37.504;2023-03-30T05:53:07;4.40;;;4.00;;
58097;SDS011;43913;55.940;37.504;2023-03-30T05:55:46;5.72;;;3.80;;
58097;SDS011;43913;55.940;37.504;2023-03-30T05:58:31;4.82;;;3.53;;
58097;SDS011;43913;55.940;37.504;2023-03-30T06:01:19;3.58;;;3.28;;
58097;SDS011;43913;55.940;37.504;2023-03-30T06:03:47;3.85;;;3.45;;
58097;SDS011;43913;55.940;37.504;2023-03-30T06:06:13;4.50;;;3.97;;
58097;SDS011;43913;55.940;37.504;2023-03-30T06:08:39;4.32;;;3.50;;
58097;SDS011;43913;55.940;37.504;2023-03-30T06:11:08;3.95;;;3.55;;
58097;SDS011;43913;55.940;37.504;2023-03-30T06:13:47;4.20;;;3.80;;
58097;SDS011;43913;55.940;37.504;2023-03-30T06:16:15;4.10;;;3.67;;
58097;SDS011;43913;55.940;37.504;2023-03-30T06:18:42;4.63;;;3.67;;
58097;SDS011;43913;55.940;37.504;2023-03-30T06:21:11;4.63;;;4.13;;
58097;SDS011;43913;55.940;37.504;2023-03-30T06:23:56;3.83;;;3.53;;
58097;SDS011;43913;55.940;37.504;2023-03-30T06:26:25;3.97;;;3.58;;
58097;SDS011;43913;55.940;37.504;2023-03-30T06:28:51;16.33;;;13.75;;
58097;SDS011;43913;55.940;37.504;2023-03-30T06:31:17;9.88;;;8.88;;
58097;SDS011;43913;55.940;37.504;2023-03-30T06:33:46;5.15;;;4.65;;
58097;SDS011;43913;55.940;37.504;2023-03-30T06:36:14;4.30;;;3.90;;
58097;SDS011;43913;55.940;37.504;2023-03-30T06:38:42;3.88;;;3.45;;
58097;SDS011;43913;55.940;37.504;2023-03-30T06:41:09;3.80;;;3.33;;
58097;SDS011;43913;55.940;37.504;2023-03-30T06:43:39;4.03;;;3.20;;
58097;SDS011;43913;55.940;37.504;2023-03-30T06:46:15;3.30;;;2.90;;
58097;SDS011;43913;55.940;37.504;2023-03-30T06:48:45;5.15;;;3.83;;
58097;SDS011;43913;55.940;37.504;2023-03-30T06:51:30;3.42;;;3.13;;
58097;SDS011;43913;55.940;37.504;2023-03-30T06:54:00;4.32;;;2.95;;
58097;SDS011;43913;55.940;37.504;2023-03-30T06:56:26;2.97;;;2.78;;
58097;SDS011;43913;55.940;37.504;2023-03-30T06:59:03;3.38;;;3.08;;
58097;SDS011;43913;55.940;37.504;2023-03-30T07:01:32;2.95;;;2.67;;
58097;SDS011;43913;55.940;37.504;2023-03-30T07:04:21;3.30;;;3.00;;
58097;SDS011;43913;55.940;37.504;2023-03-30T07:07:22;5.95;;;2.95;;
58097;SDS011;43913;55.940;37.504;2023-03-30T07:09:48;3.38;;;3.05;;
58097;SDS011;43913;55.940;37.504;2023-03-30T07:12:14;3.17;;;2.88;;
58097;SDS011;43913;55.940;37.504;2023-03-30T07:14:41;4.03;;;2.90;;
58097;SDS011;43913;55.940;37.504;2023-03-30T07:17:07;3.67;;;2.70;;
58097;SDS011;43913;55.940;37.504;2023-03-30T07:19:33;3.63;;;2.92;;
58097;SDS011;43913;55.940;37.504;2023-03-30T07:21:59;3.10;;;2.80;;
58097;SDS011;43913;55.940;37.504;2023-03-30T07:24:26;4.55;;;2.40;;
58097;SDS011;43913;55.940;37.504;2023-03-30T07:26:52;3.20;;;2.90;;
58097;SDS011;43913;55.940;37.504;2023-03-30T07:29:19;3.22;;;2.92;;
58097;SDS011;43913;55.940;37.504;2023-03-30T07:31:50;3.22;;;2.92;;
58097;SDS011;43913;55.940;37.504;2023-03-30T07:34:18;3.60;;;3.30;;
58097;SDS011;43913;55.940;37.504;2023-03-30T07:36:49;3.40;;;3.10;;
58097;SDS011;43913;55.940;37.504;2023-03-30T07:39:15;3.38;;;2.65;;
58097;SDS011;43913;55.940;37.504;2023-03-30T07:41:43;4.10;;;3.05;;
58097;SDS011;43913;55.940;37.504;2023-03-30T07:44:12;3.15;;;2.70;;
58097;SDS011;43913;55.940;37.504;2023-03-30T07:46:38;2.58;;;2.28;;
58097;SDS011;43913;55.940;37.504;2023-03-30T07:49:04;3.38;;;2.85;;
58097;SDS011;43913;55.940;37.504;2023-03-30T07:51:30;3.33;;;3.03;;
58097;SDS011;43913;55.940;37.504;2023-03-30T07:54:06;4.05;;;2.70;;
58097;SDS011;43913;55.940;37.504;2023-03-30T07:56:54;3.35;;;3.05;;
58097;SDS011;43913;55.940;37.504;2023-03-30T07:59:21;3.50;;;3.20;;
58097;SDS011;43913;55.940;37.504;2023-03-30T08:01:48;3.88;;;2.60;;
58097;SDS011;43913;55.940;37.504;2023-03-30T08:04:41;2.83;;;2.60;;
58097;SDS011;43913;55.940;37.504;2023-03-30T08:07:08;3.10;;;2.80;;
58097;SDS011;43913;55.940;37.504;2023-03-30T08:09:35;5.60;;;2.92;;
58097;SDS011;43913;55.940;37.504;2023-03-30T08:12:02;5.00;;;2.90;;
58097;SDS011;43913;55.940;37.504;2023-03-30T08:14:28;2.80;;;2.60;;
58097;SDS011;43913;55.940;37.504;2023-03-30T08:16:54;2.42;;;2.22;;
58097;SDS011;43913;55.940;37.504;2023-03-30T08:19:21;4.05;;;2.65;;
58097;SDS011;43913;55.940;37.504;2023-03-30T08:21:48;9.75;;;2.95;;
58097;SDS011;43913;55.940;37.504;2023-03-30T08:24:14;2.08;;;1.77;;
58097;SDS011;43913;55.940;37.504;2023-03-30T08:26:40;3.80;;;2.40;;
58097;SDS011;43913;55.940;37.504;2023-03-30T08:29:06;2.28;;;2.08;;
58097;SDS011;43913;55.940;37.504;2023-03-30T08:31:32;2.65;;;1.92;;
58097;SDS011;43913;55.940;37.504;2023-03-30T08:33:58;5.00;;;2.10;;
58097;SDS011;43913;55.940;37.504;2023-03-30T08:36:24;3.33;;;2.22;;
58097;SDS011;43913;55.940;37.504;2023-03-30T08:38:50;4.55;;;2.78;;
58097;SDS011;43913;55.940;37.504;2023-03-30T08:41:25;4.03;;;3.53;;
58097;SDS011;43913;55.940;37.504;2023-03-30T08:44:19;3.88;;;2.42;;
58097;SDS011;43913;55.940;37.504;2023-03-30T08:47:00;2.60;;;2.30;;
58097;SDS011;43913;55.940;37.504;2023-03-30T08:49:28;4.78;;;2.85;;
58097;SDS011;43913;55.940;37.504;2023-03-30T08:51:58;2.40;;;2.20;;
58097;SDS011;43913;55.940;37.504;2023-03-30T08:54:28;2.17;;;1.98;;
58097;SDS011;43913;55.940;37.504;2023-03-30T08:59:28;3.50;;;2.40;;
58097;SDS011;43913;55.940;37.504;2023-03-30T09:02:22;8.43;;;2.50;;
58097;SDS011;43913;55.940;37.504;2023-03-30T09:04:57;6.88;;;2.90;;
58097;SDS011;43913;55.940;37.504;2023-03-30T09:07:27;3.22;;;2.50;;
58097;SDS011;43913;55.940;37.504;2023-03-30T09:09:57;6.55;;;2.40;;
58097;SDS011;43913;55.940;37.504;2023-03-30T09:12:26;3.17;;;2.13;;
58097;SDS011;43913;55.940;37.504;2023-03-30T09:15:19;4.75;;;1.60;;
58097;SDS011;43913;55.940;37.504;2023-03-30T09:20:36;3.90;;;2.20;;
58097;SDS011;43913;55.940;37.504;2023-03-30T09:23:03;1.77;;;1.67;;
58097;SDS011;43913;55.940;37.504;2023-03-30T09:28:33;4.75;;;1.30;;
58097;SDS011;43913;55.940;37.504;2023-03-30T09:36:38;4.18;;;1.70;;
58097;SDS011;43913;55.940;37.504;2023-03-30T09:39:20;1.60;;;1.50;;
58097;SDS011;43913;55.940;37.504;2023-03-30T09:44:35;1.60;;;1.50;;
58097;SDS011;43913;55.940;37.504;2023-03-30T09:47:48;1.60;;;1.50;;
58097;SDS011;43913;55.940;37.504;2023-03-30T09:49:54;2.15;;;1.95;;
58097;SDS011;43913;55.940;37.504;2023-03-30T09:52:24;2.47;;;1.65;;
58097;SDS011;43913;55.940;37.504;2023-03-30T09:54:51;1.50;;;1.33;;
58097;SDS011;43913;55.940;37.504;2023-03-30T09:57:24;1.48;;;1.38;;
58097;SDS011;43913;55.940;37.504;2023-03-30T09:59:55;2.88;;;1.50;;
58097;SDS011;43913;55.940;37.504;2023-03-30T10:02:23;1.60;;;1.50;;
58097;SDS011;43913;55.940;37.504;2023-03-30T10:07:22;1.58;;;1.48;;
58097;SDS011;43913;55.940;37.504;2023-03-30T10:09:50;1.50;;;1.40;;
58097;SDS011;43913;55.940;37.504;2023-03-30T10:12:17;2.97;;;1.60;;
58097;SDS011;43913;55.940;37.504;2023-03-30T10:14:43;1.77;;;1.63;;
58097;SDS011;43913;55.940;37.504;2023-03-30T10:17:17;2.60;;;1.50;;
58097;SDS011;43913;55.940;37.504;2023-03-30T10:22:17;3.38;;;1.55;;
58097;SDS011;43913;55.940;37.504;2023-03-30T10:24:50;1.73;;;1.40;;
58097;SDS011;43913;55.940;37.504;2023-03-30T10:27:17;2.75;;;1.67;;
58097;SDS011;43913;55.940;37.504;2023-03-30T10:29:45;1.65;;;1.55;;
58097;SDS011;43913;55.940;37.504;2023-03-30T10:32:14;2.35;;;1.70;;
58097;SDS011;43913;55.940;37.504;2023-03-30T10:34:51;1.88;;;1.77;;
58097;SDS011;43913;55.940;37.504;2023-03-30T10:37:52;3.35;;;1.90;;
58097;SDS011;43913;55.940;37.504;2023-03-30T10:40:16;1.63;;;1.50;;
58097;SDS011;43913;55.940;37.504;2023-03-30T10:42:45;1.50;;;1.40;;
58097;SDS011;43913;55.940;37.504;2023-03-30T10:55:51;2.10;;;1.80;;
58097;SDS011;43913;55.940;37.504;2023-03-30T10:58:52;3.13;;;2.33;;
58097;SDS011;43913;55.940;37.504;2023-03-30T11:01:46;2.38;;;2.17;;
58097;SDS011;43913;55.940;37.504;2023-03-30T11:06:56;2.20;;;2.00;;
58097;SDS011;43913;55.940;37.504;2023-03-30T11:09:25;2.25;;;1.80;;
58097;SDS011;43913;55.940;37.504;2023-03-30T11:12:13;1.73;;;1.60;;
58097;SDS011;43913;55.940;37.504;2023-03-30T11:14:59;2.00;;;1.90;;
58097;SDS011;43913;55.940;37.504;2023-03-30T11:17:33;1.83;;;1.73;;
58097;SDS011;43913;55.940;37.504;2023-03-30T11:20:13;1.90;;;1.80;;
58097;SDS011;43913;55.940;37.504;2023-03-30T11:22:47;6.63;;;4.90;;
58097;SDS011;43913;55.940;37.504;2023-03-30T11:25:18;2.53;;;2.17;;
58097;SDS011;43913;55.940;37.504;2023-03-30T11:27:54;2.10;;;1.90;;
58097;SDS011;43913;55.940;37.504;2023-03-30T11:30:30;2.83;;;2.38;;
58097;SDS011;43913;55.940;37.504;2023-03-30T11:35:55;2.40;;;2.20;;
58097;SDS011;43913;55.940;37.504;2023-03-30T11:38:28;3.83;;;2.30;;
58097;SDS011;43913;55.940;37.504;2023-03-30T11:40:59;2.72;;;2.53;;
58097;SDS011;43913;55.940;37.504;2023-03-30T11:43:31;3.17;;;2.88;;
58097;SDS011;43913;55.940;37.504;2023-03-30T11:56:50;2.83;;;2.53;;
58097;SDS011;43913;55.940;37.504;2023-03-30T11:59:31;5.38;;;2.67;;
58097;SDS011;43913;55.940;37.504;2023-03-30T12:02:23;3.05;;;2.75;;
58097;SDS011;43913;55.940;37.504;2023-03-30T12:05:00;3.67;;;2.88;;
58097;SDS011;43913;55.940;37.504;2023-03-30T12:07:41;3.08;;;2.50;;
58097;SDS011;43913;55.940;37.504;2023-03-30T12:10:19;3.17;;;2.38;;
58097;SDS011;43913;55.940;37.504;2023-03-30T12:12:49;2.60;;;2.40;;
58097;SDS011;43913;55.940;37.504;2023-03-30T12:15:37;3.17;;;2.17;;
58097;SDS011;43913;55.940;37.504;2023-03-30T12:18:16;2.40;;;2.15;;
58097;SDS011;43913;55.940;37.504;2023-03-30T12:20:52;2.63;;;2.42;;
58097;SDS011;43913;55.940;37.504;2023-03-30T12:28:45;3.75;;;3.00;;
58097;SDS011;43913;55.940;37.504;2023-03-30T12:31:12;2.50;;;2.30;;
58097;SDS011;43913;55.940;37.504;2023-03-30T12:33:46;3.22;;;2.90;;
58097;SDS011;43913;55.940;37.504;2023-03-30T12:36:21;3.35;;;3.05;;
58097;SDS011;43913;55.940;37.504;2023-03-30T12:38:51;4.15;;;2.70;;
58097;SDS011;43913;55.940;37.504;2023-03-30T12:41:22;3.75;;;3.00;;
58097;SDS011;43913;55.940;37.504;2023-03-30T13:05:41;3.75;;;2.90;;
58097;SDS011;43913;55.940;37.504;2023-03-30T13:08:15;3.85;;;2.88;;
58097;SDS011;43913;55.940;37.504;2023-03-30T13:11:05;3.50;;;3.20;;
58097;SDS011;43913;55.940;37.504;2023-03-30T13:13:44;4.60;;;3.55;;
58097;SDS011;43913;55.940;37.504;2023-03-30T13:16:13;3.50;;;3.20;;
58097;SDS011;43913;55.940;37.504;2023-03-30T13:18:53;3.75;;;2.92;;
58097;SDS011;43913;55.940;37.504;2023-03-30T13:21:20;4.43;;;3.03;;
58097;SDS011;43913;55.940;37.504;2023-03-30T13:23:59;3.40;;;3.10;;
58097;SDS011;43913;55.940;37.504;2023-03-30T13:26:38;3.42;;;3.13;;
58097;SDS011;43913;55.940;37.504;2023-03-30T13:29:09;3.63;;;2.92;;
58097;SDS011;43913;55.940;37.504;2023-03-30T13:37:04;3.33;;;3.03;;
58097;SDS011;43913;55.940;37.504;2023-03-30T13:39:45;4.40;;;3.55;;
58097;SDS011;43913;55.940;37.504;2023-03-30T13:50:02;3.67;;;3.15;;
58097;SDS011;43913;55.940;37.504;2023-03-30T13:52:37;7.20;;;3.80;;
58097;SDS011;43913;55.940;37.504;2023-03-30T13:55:13;5.18;;;4.22;;
58097;SDS011;43913;55.940;37.504;2023-03-30T13:57:44;4.90;;;3.70;;
58097;SDS011;43913;55.940;37.504;2023-03-30T14:00:29;8.10;;;4.03;;
58097;SDS011;43913;55.940;37.504;2023-03-30T14:06:20;3.83;;;2.90;;
58097;SDS011;43913;55.940;37.504;2023-03-30T14:08:49;3.78;;;3.10;;
58097;SDS011;43913;55.940;37.504;2023-03-30T14:11:35;3.35;;;3.03;;
58097;SDS011;43913;55.940;37.504;2023-03-30T14:14:02;5.90;;;2.95;;
58097;SDS011;43913;55.940;37.504;2023-03-30T14:16:36;3.80;;;3.15;;
58097;SDS011;43913;55.940;37.504;2023-03-30T14:19:11;4.82;;;3.25;;
58097;SDS011;43913;55.940;37.504;2023-03-30T14:21:43;4.60;;;3.38;;
58097;SDS011;43913;55.940;37.504;2023-03-30T14:24:13;8.93;;;3.58;;
58097;SDS011;43913;55.940;37.504;2023-03-30T14:30:17;4.47;;;3.30;;
58097;SDS011;43913;55.940;37.504;2023-03-30T14:32:46;4.85;;;3.30;;
58097;SDS011;43913;55.940;37.504;2023-03-30T14:35:14;3.88;;;2.90;;
58097;SDS011;43913;55.940;37.504;2023-03-30T14:37:42;9.63;;;3.60;;
58097;SDS011;43913;55.940;37.504;2023-03-30T14:40:15;3.55;;;3.10;;
58097;SDS011;43913;55.940;37.504;2023-03-30T14:42:49;5.50;;;3.38;;
58097;SDS011;43913;55.940;37.504;2023-03-30T14:45:15;4.55;;;3.17;;
58097;SDS011;43913;55.940;37.504;2023-03-30T14:47:42;4.57;;;3.25;;
58097;SDS011;43913;55.940;37.504;2023-03-30T14:50:08;6.28;;;3.40;;
58097;SDS011;43913;55.940;37.504;2023-03-30T14:52:39;4.80;;;3.42;;
58097;SDS011;43913;55.940;37.504;2023-03-30T14:55:06;4.15;;;3.53;;
58097;SDS011;43913;55.940;37.504;2023-03-30T14:57:38;3.33;;;3.03;;
58097;SDS011;43913;55.940;37.504;2023-03-30T15:00:05;5.97;;;3.47;;
58097;SDS011;43913;55.940;37.504;2023-03-30T15:02:41;5.60;;;4.10;;
58097;SDS011;43913;55.940;37.504;2023-03-30T15:05:07;3.80;;;3.40;;
58097;SDS011;43913;55.940;37.504;2023-03-30T15:07:34;3.58;;;3.28;;
58097;SDS011;43913;55.940;37.504;2023-03-30T15:10:00;4.55;;;3.38;;
58097;SDS011;43913;55.940;37.504;2023-03-30T15:12:38;7.13;;;3.63;;
58097;SDS011;43913;55.940;37.504;2023-03-30T15:15:05;5.65;;;3.90;;
58097;SDS011;43913;55.940;37.504;2023-03-30T15:17:32;4.10;;;3.70;;
58097;SDS011;43913;55.940;37.504;2023-03-30T15:19:59;8.70;;;3.90;;
58097;SDS011;43913;55.940;37.504;2023-03-30T15:22:32;4.22;;;3.63;;
58097;SDS011;43913;55.940;37.504;2023-03-30T15:24:59;9.43;;;4.45;;
58097;SDS011;43913;55.940;37.504;2023-03-30T15:27:28;4.40;;;4.00;;
58097;SDS011;43913;55.940;37.504;2023-03-30T15:29:54;6.10;;;3.83;;
58097;SDS011;43913;55.940;37.504;2023-03-30T15:32:24;4.57;;;4.10;;
58097;SDS011;43913;55.940;37.504;2023-03-30T15:37:28;9.95;;;4.30;;
58097;SDS011;43913;55.940;37.504;2023-03-30T15:39:55;6.35;;;3.92;;
58097;SDS011;43913;55.940;37.504;2023-03-30T15:42:24;4.95;;;4.15;;
58097;SDS011;43913;55.940;37.504;2023-03-30T15:45:00;4.70;;;3.92;;
58097;SDS011;43913;55.940;37.504;2023-03-30T15:47:28;4.90;;;4.32;;
58097;SDS011;43913;55.940;37.504;2023-03-30T15:49:55;5.38;;;4.70;;
58097;SDS011;43913;55.940;37.504;2023-03-30T15:52:34;3.97;;;3.67;;
58097;SDS011;43913;55.940;37.504;2023-03-30T15:55:02;7.90;;;4.45;;
58097;SDS011;43913;55.940;37.504;2023-03-30T15:57:31;4.00;;;3.60;;
58097;SDS011;43913;55.940;37.504;2023-03-30T15:59:58;4.93;;;4.20;;
58097;SDS011;43913;55.940;37.504;2023-03-30T16:07:45;5.47;;;4.30;;
58097;SDS011;43913;55.940;37.504;2023-03-30T16:10:18;5.20;;;4.00;;
58097;SDS011;43913;55.940;37.504;2023-03-30T16:12:54;9.63;;;4.32;;
58097;SDS011;43913;55.940;37.504;2023-03-30T16:15:21;5.90;;;4.28;;
58097;SDS011;43913;55.940;37.504;2023-03-30T16:17:49;5.97;;;3.72;;
58097;SDS011;43913;55.940;37.504;2023-03-30T16:20:19;7.38;;;5.20;;
58097;SDS011;43913;55.940;37.504;2023-03-30T16:22:49;7.80;;;4.78;;
58097;SDS011;43913;55.940;37.504;2023-03-30T16:25:16;10.38;;;4.50;;
58097;SDS011;43913;55.940;37.504;2023-03-30T16:27:43;6.40;;;4.85;;
58097;SDS011;43913;55.940;37.504;2023-03-30T16:32:40;5.55;;;4.75;;
58097;SDS011;43913;55.940;37.504;2023-03-30T16:35:06;4.55;;;3.78;;
58097;SDS011;43913;55.940;37.504;2023-03-30T16:37:32;5.32;;;3.50;;
58097;SDS011;43913;55.940;37.504;2023-03-30T16:39:58;9.45;;;4.80;;
58097;SDS011;43913;55.940;37.504;2023-03-30T16:42:24;7.03;;;4.95;;
58097;SDS011;43913;55.940;37.504;2023-03-30T16:44:52;8.68;;;4.78;;
58097;SDS011;43913;55.940;37.504;2023-03-30T16:47:18;9.52;;;5.07;;
58097;SDS011;43913;55.940;37.504;2023-03-30T16:49:45;4.97;;;4.47;;
58097;SDS011;43913;55.940;37.504;2023-03-30T16:52:11;8.52;;;5.82;;
58097;SDS011;43913;55.940;37.504;2023-03-30T16:54:38;6.80;;;5.82;;
58097;SDS011;43913;55.940;37.504;2023-03-30T16:57:04;6.45;;;5.38;;
58097;SDS011;43913;55.940;37.504;2023-03-30T16:59:30;8.38;;;5.28;;
58097;SDS011;43913;55.940;37.504;2023-03-30T17:01:57;6.85;;;5.30;;
58097;SDS011;43913;55.940;37.504;2023-03-30T17:04:24;6.55;;;5.57;;
58097;SDS011;43913;55.940;37.504;2023-03-30T17:06:50;5.35;;;4.82;;
58097;SDS011;43913;55.940;37.504;2023-03-30T17:09:18;7.03;;;5.55;;
58097;SDS011;43913;55.940;37.504;2023-03-30T17:11:45;5.93;;;5.20;;
58097;SDS011;43913;55.940;37.504;2023-03-30T17:14:15;5.78;;;5.18;;
58097;SDS011;43913;55.940;37.504;2023-03-30T17:16:42;6.15;;;4.72;;
58097;SDS011;43913;55.940;37.504;2023-03-30T17:19:11;6.00;;;5.35;;
58097;SDS011;43913;55.940;37.504;2023-03-30T17:21:37;6.82;;;5.30;;
58097;SDS011;43913;55.940;37.504;2023-03-30T17:24:04;6.65;;;4.72;;
58097;SDS011;43913;55.940;37.504;2023-03-30T17:26:30;4.25;;;3.85;;
58097;SDS011;43913;55.940;37.504;2023-03-30T17:28:56;6.07;;;4.50;;
58097;SDS011;43913;55.940;37.504;2023-03-30T17:31:22;5.93;;;4.63;;
58097;SDS011;43913;55.940;37.504;2023-03-30T17:33:48;11.68;;;5.57;;